Latest Weather Observations for Temora

IDN60801

Issued at 4:42 am EDT Wednesday 20 February 2019 (issued every 10 minutes, with the page automatically refreshed every 10 minutes)

About weather observations | Map of weather stations | Latest weather observations for NSW | Other Formats
Station Details ID: 073151 Name: TEMORA AIRPORT Lat: -34.43 Lon: 147.51 Height: 280.5 m
Data from the previous 72 hours. | See also: Recent months at Temora
Date/Time
EDT
Temp
°C
App
Temp
°C
Dew
Point
°C
Rel
Hum
%
Delta-T
°C
Wind Press
QNH
hPa
Press
MSL
hPa
Rain since
9am
mm
Dir  Spd
km/h
Gust
km/h
Spd
kts
Gust
kts
20/04:30am 12.9 11.2 7.6 70 2.6 SSW 6 9 3 5 1012.3 1010.8 0.0
20/04:00am 12.7 10.6 6.7 67 2.9 S 7 9 4 5 1012.4 1010.9 0.0
20/03:30am 16.2 14.0 7.9 58 4.2 SE 9 11 5 6 1012.3 1010.8 0.0
20/03:00am 15.9 13.3 4.3 46 5.5 SSE 7 11 4 6 1012.4 1010.9 0.0
20/02:30am 16.9 13.8 3.6 41 6.3 SE 9 13 5 7 1012.4 1010.9 0.0
20/02:00am 17.0 13.5 3.7 41 6.3 SSE 11 13 6 7 1012.6 1011.1 0.0
20/01:30am 17.4 13.6 4.0 41 6.4 SSE 13 17 7 9 1012.6 1011.1 0.0
20/01:00am 17.6 13.7 3.5 39 6.7 SSW 13 17 7 9 1012.6 1011.1 0.0
20/12:30am 17.1 13.1 2.7 38 6.7 S 13 15 7 8 1012.8 1011.4 0.0
20/12:00am 17.7 14.4 2.5 36 7.0 SW 9 13 5 7 1012.5 1011.0 0.0
 
Date/Time
EDT
Temp
°C
App
Temp
°C
Dew
Point
°C
Rel
Hum
%
Delta-T
°C
Wind Press
QNH
hPa
Press
MSL
hPa
Rain since
9am
mm
Dir  Spd
km/h
Gust
km/h
Spd
kts
Gust
kts
19/11:30pm 18.7 15.0 2.1 33 7.7 SSW 11 15 6 8 1012.7 1011.3 0.0
19/11:00pm 19.4 15.6 1.9 31 8.1 SW 11 15 6 8 1012.5 1011.0 0.0
19/10:30pm 20.2 16.4 1.6 29 8.6 SW 11 17 6 9 1012.3 1010.8 0.0
19/10:00pm 20.3 16.4 1.2 28 8.8 SW 11 15 6 8 1012.0 1010.5 0.0
19/09:30pm 20.8 16.9 1.1 27 9.1 SW 11 15 6 8 1011.6 1010.1 0.0
19/09:00pm 21.4 17.4 0.6 25 9.6 SW 11 15 6 8 1011.2 1009.7 0.0
19/08:30pm 22.6 19.1 -1.5 20 10.7 SW 7 11 4 6 1010.8 1009.4 0.0
19/08:00pm 24.0 19.3 -1.8 18 11.6 SW 13 20 7 11 1010.3 1008.9 0.0
19/07:30pm 26.0 20.2 -1.7 16 12.6 SW 19 26 10 14 1009.8 1008.4 0.0
19/07:00pm 27.0 21.3 -0.9 16 13.0 WSW 19 26 10 14 1009.4 1007.9 0.0
19/06:30pm 27.5 21.1 -1.4 15 13.4 SW 22 33 12 18 1009.1 1007.6 0.0
19/06:00pm 28.1 21.9 -2.9 13 14.1 SW 20 28 11 15 1008.9 1007.4 0.0
19/05:30pm 28.6 21.7 -2.5 13 14.3 WSW 24 33 13 18 1008.7 1007.2 0.0
19/05:00pm 29.1 22.5 -3.2 12 14.7 SW 22 33 12 18 1008.5 1007.0 0.0
19/04:30pm 29.0 22.8 -3.2 12 14.6 WSW 20 33 11 18 1008.5 1007.0 0.0
19/04:00pm 28.9 22.0 -2.3 13 14.4 WSW 24 35 13 19 1008.6 1007.1 0.0
19/03:30pm 28.8 23.0 -0.4 15 13.9 SW 20 33 11 18 1008.8 1007.3 0.0
19/03:00pm 28.2 22.6 0.0 16 13.5 SW 19 30 10 16 1009.1 1007.6 0.0
19/02:30pm 28.7 23.6 2.8 19 13.0 SW 19 28 10 15 1009.3 1007.8 0.0
19/02:00pm 27.1 21.7 2.2 20 12.3 WSW 20 30 11 16 1009.6 1008.2 0.0
19/01:30pm 27.1 21.5 1.5 19 12.5 WSW 20 28 11 15 1009.7 1008.3 0.0
19/01:00pm 25.2 19.8 1.3 21 11.5 SW 19 26 10 14 1010.0 1008.6 0.0
19/12:30pm 25.0 19.6 2.4 23 11.0 SW 20 33 11 18 1010.3 1008.9 0.0
19/12:00pm 24.2 18.1 0.5 21 11.1 SW 22 28 12 15 1010.6 1009.2 0.0
19/11:30am 23.5 18.6 4.0 28 9.7 SSW 19 28 10 15 1010.7 1009.3 0.0
19/11:00am 22.6 17.6 4.6 31 9.0 SW 20 28 11 15 1010.8 1009.4 0.0
19/10:30am 21.8 17.6 8.3 42 7.2 SW 20 26 11 14 1010.4 1009.0 0.0
19/10:00am 20.3 15.1 7.3 43 6.7 SW 24 33 13 18 1010.2 1008.8 0.0
19/09:30am 19.5 15.6 8.8 50 5.7 SW 19 26 10 14 1009.9 1008.5 0.0
19/09:00am 18.5 14.8 9.3 55 4.9 SW 19 26 10 14 1009.8 1008.4 2.8
19/08:30am 18.5 15.3 10.1 58 4.5 WSW 17 22 9 12 1009.5 1008.1 2.8
19/08:00am 18.0 15.1 9.6 58 4.5 SW 15 20 8 11 1009.2 1007.7 2.8
19/07:30am 17.6 14.4 10.0 61 4.1 SW 17 24 9 13 1008.8 1007.3 2.8
19/07:00am 17.9 15.3 10.8 63 3.9 SW 15 24 8 13 1008.3 1006.8 2.6
19/06:30am 18.6 16.5 11.2 62 4.1 WSW 13 19 7 10 1007.8 1006.3 2.6
19/06:00am 19.4 17.5 11.7 61 4.3 SW 13 15 7 8 1007.6 1006.1 2.6
19/05:30am 20.1 18.6 11.8 59 4.7 WSW 11 15 6 8 1007.0 1005.6 2.6
19/05:00am 20.9 19.6 11.3 54 5.4 SW 9 13 5 7 1006.8 1005.4 2.6
19/04:30am 22.1 19.1 10.6 48 6.4 WSW 17 24 9 13 1006.6 1005.2 2.6
19/04:00am 21.3 22.4 16.5 74 2.9 WSW 6 15 3 8 1006.6 1005.2 2.6
19/03:30am 21.4 22.1 15.7 70 3.4 WNW 6 7 3 4 1006.5 1005.1 2.6
19/03:00am 22.0 22.3 16.1 69 3.6 W 9 13 5 7 1006.5 1005.1 2.6
19/02:30am 22.3 22.2 16.1 68 3.8 NNW 11 17 6 9 1006.4 1005.0 2.6
19/02:00am 22.6 22.1 15.9 66 4.1 NNW 13 17 7 9 1006.8 1005.4 2.6
19/01:30am 22.5 22.1 16.1 67 3.9 N 13 15 7 8 1007.1 1005.7 2.6
19/01:00am 23.5 23.4 16.1 63 4.6 N 11 15 6 8 1007.1 1005.7 2.6
19/12:30am 23.6 22.6 16.6 65 4.3 N 17 20 9 11 1006.9 1005.5 2.6
19/12:00am 23.6 23.0 16.6 65 4.3 NNE 15 19 8 10 1007.0 1005.6 2.6
 
Date/Time
EDT
Temp
°C
App
Temp
°C
Dew
Point
°C
Rel
Hum
%
Delta-T
°C
Wind Press
QNH
hPa
Press
MSL
hPa
Rain since
9am
mm
Dir  Spd
km/h
Gust
km/h
Spd
kts
Gust
kts
18/11:30pm 23.7 23.1 16.7 65 4.3 N 15 15 8 8 1006.9 1005.5 2.6
18/11:00pm 25.1 25.3 16.8 60 5.2 NE 11 15 6 8 1007.1 1005.7 2.6
18/10:30pm 24.6 23.4 16.1 59 5.2 NNE 17 22 9 12 1007.8 1006.3 2.6
18/10:00pm 25.6 25.4 16.7 58 5.6 NNE 13 17 7 9 1007.5 1006.0 2.6
18/09:30pm 26.5 25.7 15.2 49 6.9 ENE 13 17 7 9 1006.2 1004.7 2.6
18/09:00pm 26.5 25.7 15.2 49 6.9 NE 13 15 7 8 1006.6 1005.2 2.6
18/08:30pm 26.1 25.3 17.2 58 5.6 N 17 20 9 11 1006.7 1005.3 2.6
18/08:00pm 27.7 28.4 16.0 49 7.3 E 7 11 4 6 1006.8 1005.4 2.6
18/07:30pm 27.7 29.1 17.3 53 6.6 E 6 17 3 9 1006.5 1005.1 2.6
18/07:00pm 27.7 27.4 17.3 53 6.6 NE 15 19 8 10 1005.6 1004.1 2.6
18/06:30pm 28.9 27.9 14.7 42 8.7 S 13 30 7 16 1004.9 1003.4 2.6
18/06:00pm 27.3 26.0 15.7 49 7.2 W 17 33 9 18 1004.8 1003.3 2.2
18/05:30pm 26.2 26.2 18.9 64 4.7 SE 17 22 9 12 1004.5 1003.0 2.0
18/05:00pm 27.7 24.0 14.0 43 8.3 WSW 26 37 14 20 1005.5 1004.0 0.2
18/04:57pm 29.2 24.3 12.6 36 9.9 SW 30 43 16 23 1005.4 1003.9 0.2
18/04:30pm 34.6 28.5 6.8 18 15.5 NNW 28 46 15 25 1004.2 1002.7 0.0
18/04:00pm 33.8 27.3 10.4 24 13.7 NW 35 52 19 28 1004.7 1003.2 0.0
18/03:52pm 36.2 29.1 6.4 16 16.6 NNW 33 52 18 28 1004.6 1003.1 0.0
18/03:30pm 37.0 29.3 7.0 16 16.9 NNW 37 48 20 26 1004.6 1003.1 0.0
18/03:03pm 38.5 32.2 7.3 15 17.8 NNW 30 50 16 27 1004.9 1003.4 0.0
18/03:00pm 37.5 31.2 7.4 16 17.2 NNW 30 39 16 21 1005.1 1003.6 0.0
18/02:30pm 37.2 29.9 7.2 16 17.0 NW 35 46 19 25 1005.7 1004.2 0.0
18/02:00pm 37.7 31.1 7.6 16 17.2 NNW 32 50 17 27 1006.1 1004.6 0.0
18/01:39pm 37.1 30.3 7.1 16 17.0 NNW 32 50 17 27 1006.5 1005.1 0.0
18/01:30pm 37.4 30.5 6.4 15 17.4 NNW 32 41 17 22 1006.6 1005.2 0.0
18/01:19pm 37.3 30.2 6.3 15 17.3 NNW 33 46 18 25 1006.9 1005.5 0.0
18/01:00pm 36.9 30.3 7.8 17 16.6 N 32 50 17 27 1007.2 1005.8 0.0
18/12:30pm 36.5 28.9 5.7 15 17.0 NNW 35 44 19 24 1007.7 1006.2 0.0
18/12:00pm 34.9 29.5 7.9 19 15.3 NNW 26 41 14 22 1008.5 1007.0 0.0
18/11:30am 33.8 27.6 7.7 20 14.7 N 30 43 16 23 1009.0 1007.5 0.0
18/11:00am 33.2 27.2 7.2 20 14.5 N 28 41 15 22 1009.3 1007.8 0.0
18/10:30am 31.6 26.0 7.3 22 13.4 N 26 33 14 18 1009.6 1008.2 0.0
18/10:00am 30.5 24.6 7.7 24 12.6 N 28 35 15 19 1009.7 1008.3 0.0
18/09:30am 29.1 25.2 8.7 28 11.4 N 19 26 10 14 1010.0 1008.6 0.0
18/09:00am 26.7 24.0 9.1 33 9.8 NNE 13 20 7 11 1010.1 1008.7 0.0
18/08:30am 24.7 22.8 10.6 41 7.9 ENE 11 15 6 8 1010.1 1008.7 0.0
18/08:00am 21.7 21.6 12.0 54 5.5 ENE 4 11 2 6 1010.0 1008.6 0.0
18/07:30am 18.0 19.0 13.3 74 2.7 CALM 0 0 0 0 1010.0 1008.6 0.0
18/07:00am 17.7 18.5 12.4 71 3.0 CALM 0 0 0 0 1009.6 1008.2 0.0
18/06:30am 17.5 17.9 11.1 66 3.5 CALM 0 0 0 0 1009.4 1007.9 0.0
18/06:00am 17.6 17.9 12.3 71 3.0 S 2 6 1 3 1009.2 1007.7 0.0
18/05:30am 18.5 18.0 12.0 66 3.6 SE 6 7 3 4 1009.2 1007.7 0.0
18/05:00am 17.9 17.4 12.6 71 3.0 S 7 11 4 6 1009.1 1007.6 0.0
18/04:30am 18.2 17.8 12.4 69 3.3 SSW 6 9 3 5 1008.9 1007.4 0.0
18/04:00am 18.6 19.3 12.1 66 3.7 CALM 0 0 0 0 1009.0 1007.5 0.0
18/03:30am 19.1 19.9 12.6 66 3.7 CALM 0 0 0 0 1009.1 1007.6 0.0
18/03:00am 19.4 19.2 12.9 66 3.7 S 6 7 3 4 1009.1 1007.6 0.0
18/02:30am 19.2 18.7 12.5 65 3.8 S 7 9 4 5 1009.2 1007.7 0.0
18/02:00am 19.7 19.8 12.7 64 4.0 SSW 4 7 2 4 1009.4 1007.9 0.0
18/01:30am 20.2 21.1 12.9 63 4.2 CALM 0 0 0 0 1009.6 1008.2 0.0
18/01:00am 20.9 22.0 13.4 62 4.4 CALM 0 0 0 0 1009.6 1008.2 0.0
18/12:30am 21.2 22.4 13.9 63 4.3 CALM 0 0 0 0 1009.8 1008.4 0.0
18/12:00am 21.9 22.8 13.0 57 5.2 CALM 0 0 0 0 1009.7 1008.3 0.0
 
Date/Time
EDT
Temp
°C
App
Temp
°C
Dew
Point
°C
Rel
Hum
%
Delta-T
°C
Wind Press
QNH
hPa
Press
MSL
hPa
Rain since
9am
mm
Dir  Spd
km/h
Gust
km/h
Spd
kts
Gust
kts
17/11:30pm 22.8 23.6 12.4 52 6.0 CALM 0 0 0 0 1009.8 1008.4 0.0
17/11:00pm 22.7 23.4 12.3 52 6.0 CALM 0 0 0 0 1009.9 1008.5 0.0
17/10:30pm 24.0 24.3 11.0 44 7.3 CALM 0 0 0 0 1009.9 1008.5 0.0
17/10:00pm 24.1 24.9 12.7 49 6.6 CALM 0 0 0 0 1010.0 1008.6 0.0
17/09:30pm 25.0 24.9 9.3 37 8.7 CALM 0 0 0 0 1009.9 1008.5 0.0
17/09:00pm 27.0 26.9 9.4 33 9.8 CALM 0 0 0 0 1009.8 1008.4 0.0
17/08:30pm 28.1 27.5 10.3 33 10.1 SSE 4 7 2 4 1009.6 1008.2 0.0
17/08:00pm 30.3 28.7 8.1 25 12.4 S 6 9 3 5 1009.5 1008.1 0.0
17/07:30pm 31.9 30.5 8.8 24 13.1 SSW 6 7 3 4 1009.4 1007.9 0.0
17/07:00pm 34.0 33.2 6.3 18 15.3 CALM 0 0 0 0 1009.4 1007.9 0.0
17/06:30pm 34.0 31.8 6.3 18 15.2 SSW 7 11 4 6 1009.5 1008.1 0.0
17/06:00pm 33.9 30.4 5.4 17 15.5 W 13 24 7 13 1009.6 1008.2 0.0
17/05:30pm 34.7 31.7 6.1 17 15.7 WSW 11 19 6 10 1009.8 1008.4 0.0
17/05:00pm 34.1 31.6 6.4 18 15.3 WNW 9 22 5 12 1009.9 1008.5 0.0
17/04:30pm 34.2 31.1 7.3 19 15.0 WSW 13 20 7 11 1010.2 1008.8 0.0
17/04:00pm 33.5 30.1 5.9 18 15.1 W 13 22 7 12 1010.4 1009.0 0.0
17/03:30pm 34.2 31.5 7.3 19 15.0 WSW 11 19 6 10 1010.9 1009.5 0.0
17/03:00pm 33.8 30.6 7.0 19 14.9 S 13 24 7 13 1011.5 1010.0 0.0
17/02:30pm 34.5 32.4 9.7 22 14.4 SW 11 20 6 11 1012.0 1010.5 0.0
17/02:00pm 33.4 30.5 8.1 21 14.3 NW 13 20 7 11 1012.5 1011.0 0.0
17/01:30pm 32.4 28.4 6.6 20 14.1 NNW 17 24 9 13 1013.0 1011.6 0.0
17/01:00pm 32.7 29.9 6.8 20 14.3 NW 11 26 6 14 1013.5 1012.1 0.0
17/12:30pm 32.1 29.4 9.0 24 13.1 N 13 22 7 12 1014.0 1012.6 0.0
17/12:00pm 30.9 27.4 7.4 23 12.9 NNW 15 20 8 11 1014.4 1013.0 0.0
17/11:30am 30.9 27.5 9.2 26 12.3 NW 17 24 9 13 1014.7 1013.3 0.0
17/11:00am 29.3 25.4 9.4 29 11.2 N 20 26 11 14 1015.0 1013.5 0.0
17/10:30am 28.5 24.2 9.2 30 10.8 NNW 22 32 12 17 1015.1 1013.6 0.0
17/10:00am 27.5 23.3 9.8 33 10.0 N 22 26 12 14 1015.0 1013.5 0.0
17/09:30am 25.6 23.0 9.4 36 9.0 NNW 13 19 7 10 1015.1 1013.6 0.0
17/09:00am 23.2 21.1 9.9 43 7.3 N 11 15 6 8 1015.0 1013.5 0.0
17/08:30am 21.6 20.4 10.4 49 6.2 NE 7 9 4 5 1014.9 1013.4 -
17/08:00am 18.6 19.0 11.2 62 4.1 CALM 0 0 0 0 1014.9 1013.4 -
17/07:30am 15.4 16.1 12.3 82 1.7 CALM 0 0 0 0 1014.6 1013.2 -
17/07:00am 14.5 14.9 11.3 81 1.7 CALM 0 0 0 0 1014.3 1012.9 -
17/06:30am 14.6 14.9 10.8 78 2.0 CALM 0 0 0 0 1013.9 1012.5 -
17/06:00am 17.9 16.2 9.8 59 4.3 ENE 9 11 5 6 1013.5 1012.1 -
17/05:30am 15.3 14.4 11.3 77 2.2 S 7 7 4 4 1013.4 1012.0 -
17/05:00am 15.4 14.5 11.2 76 2.3 S 7 9 4 5 1013.4 1012.0 -

Other formats

Comma delimited format used in spreadsheet applications
http://www.bom.gov.au/fwo/IDN60801/IDN60801.95722.axf

JavaScript Object Notation format (JSON) in row-major order
http://www.bom.gov.au/fwo/IDN60801/IDN60801.95722.json

Data quality

Most of these data are generated automatically and are frequently updated. Quality checks on data are not normally performed. It is possible for incorrect values to appear. Refer to information at About Latest Weather Observations and please check the disclaimer before using these data.